Red Lake Airport
CYRL : now visible

Airfield :











YOU CAN JOIN US ON...

 
LOGIN :

Register | Disclaimer

   EN    FR    IT 

 









Legend :    VFR   Marginal VFR   IFR   Intensive IFR   Very Intensive IFR
Visi :
Ceiling :
>= 8 km
>= 3000ft
5 to 8 km
1000 to 3000 ft
1500m to 5 km
500 to 1000 ft
800 to 1500m
200 to 500 ft
< 800m
< 200 ft
Symbols :   Thunderstorms  Fog  Heavy snow  Heavy precipitations  Wind > 20 kt







- Airport Elevation : 1265 ft
- IATA code : YRL


CYRL - Red Lake

EXPIRED METARs :
  • 201337Z 12008KT 15SM BKN005 BKN100 OVC240 13/13 A3003 RMK SF5AC2CI1 SLP178 DENSITY ALT 1300FT
  • 201300Z 13009KT 15SM BKN004 12/12 A3002 RMK ST7 SLP174

TAF TAF CYRL
Valid from the 20 at 14:00 until the 21 at 02:00 UTC


201338Z 2014/2102 12005KT P6SM SKC
TEMPO 2014/2016 5SM BR BKN004
FM201600 13008KT P6SM FEW015 BKN240
TEMPO 2016/2018 BKN015 BKN240
FM202100 21012G22KT 6SM -SHRA BKN020 OVC100
PROB30 2021/2102 VRB15G25KT 2SM +TSRA BR BKN020 OVC100CB RMK NXT FCST BY 202000Z
No reported NOTAMs for that airfield.



MET'MAP, your aeronautical weather chart ! - Copyright ORBIFLY December 2007 - Disclaimer

ORBIFLY MET'MAP TEAM :

Programming & Development : Alexandra Zaïnal
Concept & Development : Baudouin d'Aumeries
Co-Development & Prog : Marc-Olivier Méhu
Technical & hardware support : Manuel Goepfert

Contact : metmap@orbifly.com




SOURCES & CREDITS :

   NOAA       Earth
Advisory